CYYY

Mont Joli Airport

Mont-Joli, Quebec, Canada
METAR CYYY 222100Z 27005KT 30SM SCT230 06/M05 A3025 RMK CI4 SLP249
Observed Flight Rules
Apr-22 @ 21:00 UTC (42 minutes ago) Visual Flight Rules
Wind Visibility Clouds
270° at 5 knots 30 miles
  • Scattered at 23,000' AGL
Temperatures Readings
Current 6°C / 43°F
Dewpoint -5°C / 23°F
Humidity 46%
Altimeter 30.25" Hg
Pressure 1024.9 hPa
Elevation 52
METAR CYYY 222100Z 27005KT 30SM SCT230 06/M05 A3025 RMK CI4 SLP249
Observed Flight Rules
Apr-22 @ 21:00 UTC
(42 minutes ago)
VFR
Wind Visibility
270° at 5 knots 30 miles
Clouds
  • Scattered at 23,000' AGL
Temperature Dewpoint
6°C / 43°F -5°C / 23°F
Humidity Altimeter Pressure
46% 30.25" Hg 1024.9 hPa